Time;durP1;ratioP1;P1;durP2;ratioP2;P2;SDS_P1;SDS_P2;PMS_P1;PMS_P2;Temp;Humidity;BMP_temperature;BMP_pressure;BME280_temperature;BME280_humidity;BME280_pressure;Samples;Min_cycle;Max_cycle;Signal;HPM_P1;HPM_P2
2022/02/23 00:02:17;;;;;;;;;;;;;;;27.78;66.04;101261.50;4976279;28;70017;-44
2022/02/23 00:04:47;;;;;;;;;;;;;;;27.83;66.28;101256.38;4964093;28;66114;-42
2022/02/23 00:07:17;;;;;;;;;;;;;;;27.86;68.59;101247.94;4978220;28;69577;-42
2022/02/23 00:09:48;;;;;;;;;;;;;;;27.89;69.88;101249.38;4977587;28;65699;-42
2022/02/23 00:12:18;;;;;;;;;;;;;;;27.90;70.18;101257.28;4967459;28;71087;-42
2022/02/23 00:14:52;;;;;;;;;;;;;;;27.90;70.55;101264.56;4982567;28;66693;-39
2022/02/23 00:17:25;;;;;;;;;;;;;;;27.94;70.43;101269.34;4972419;28;70263;-42
2022/02/23 00:19:55;;;;;;;;;;;;;;;27.99;70.08;101272.31;4982035;28;66219;-42
2022/02/23 00:22:25;;;;;;;;;;;;;;;28.02;71.23;101265.72;4978205;28;70138;-40
2022/02/23 00:24:55;;;;;;;;;;;;;;;27.98;71.01;101270.66;4982809;28;65408;-41
2022/02/23 00:27:26;;;;;;;;;;;;;;;27.97;71.94;101277.09;4979366;28;69314;-40
2022/02/23 00:29:56;;;;;;;;;;;;;;;27.94;72.49;101274.75;4973831;28;65644;-41
2022/02/23 00:32:26;;;;;;;;;;;;;;;27.90;72.69;101275.34;4979977;28;69701;-42
2022/02/23 00:34:56;;;;;;;;;;;;;;;27.88;72.72;101275.50;4975600;28;66045;-41
2022/02/23 00:37:26;;;;;;;;;;;;;;;27.93;72.14;101281.19;4978749;28;69539;-42
2022/02/23 00:39:56;;;;;;;;;;;;;;;28.02;71.00;101277.31;4972156;28;65599;-42
2022/02/23 00:42:26;;;;;;;;;;;;;;;28.09;70.61;101279.28;4966477;28;69921;-41
2022/02/23 00:44:56;;;;;;;;;;;;;;;28.18;70.34;101280.81;4966213;28;65503;-42
2022/02/23 00:47:26;;;;;;;;;;;;;;;28.25;69.98;101279.84;4972075;28;70682;-41
2022/02/23 00:49:55;;;;;;;;;;;;;;;28.32;69.36;101274.50;4979039;28;65921;-43
2022/02/23 00:52:25;;;;;;;;;;;;;;;28.38;69.03;101281.00;4977700;28;70773;-43
2022/02/23 00:54:55;;;;;;;;;;;;;;;28.41;68.87;101277.91;4969174;28;65565;-41
2022/02/23 00:57:25;;;;;;;;;;;;;;;28.46;68.32;101289.81;4966058;28;69495;-42
2022/02/23 00:59:55;;;;;;;;;;;;;;;28.50;68.31;101290.25;4978384;28;66573;-41
2022/02/23 01:02:25;;;;;;;;;;;;;;;28.54;67.71;101305.03;4976031;28;69808;-41
2022/02/23 01:04:55;;;;;;;;;;;;;;;28.59;67.67;101309.88;4963326;28;66331;-41
2022/02/23 01:07:25;;;;;;;;;;;;;;;28.63;67.18;101321.94;4974579;28;69053;-50
2022/02/23 01:09:56;;;;;;;;;;;;;;;28.65;66.74;101309.91;4980069;28;65284;-41
2022/02/23 01:12:26;;;;;;;;;;;;;;;28.68;66.26;101312.22;4972722;28;70089;-41
2022/02/23 01:14:58;;;;;;;;;;;;;;;28.72;66.28;101310.81;4981212;28;66003;-41
2022/02/23 01:17:27;;;;;;;;;;;;;;;28.74;65.74;101310.59;4991891;27;70523;-41
2022/02/23 01:19:59;;;;;;;;;;;;;;;28.78;65.76;101314.59;4978486;28;66964;-42
2022/02/23 01:22:29;;;;;;;;;;;;;;;28.81;65.49;101319.59;4977225;28;70369;-41
2022/02/23 01:25:01;;;;;;;;;;;;;;;28.84;65.53;101321.91;4976508;28;65972;-42
2022/02/23 01:27:31;;;;;;;;;;;;;;;28.86;65.46;101314.47;4979254;28;70291;-41
2022/02/23 01:30:04;;;;;;;;;;;;;;;28.88;65.62;101320.47;4989350;28;65341;-42
2022/02/23 01:32:33;;;;;;;;;;;;;;;28.90;64.80;101318.41;4963551;28;70476;-41
2022/02/23 01:35:04;;;;;;;;;;;;;;;28.93;65.09;101318.03;4995728;27;66335;-42
2022/02/23 01:37:34;;;;;;;;;;;;;;;28.95;64.43;101321.38;4981661;28;69966;-42
2022/02/23 01:40:05;;;;;;;;;;;;;;;28.99;64.80;101310.16;4963672;28;66608;-41
2022/02/23 01:42:34;;;;;;;;;;;;;;;29.01;64.08;101308.94;4979143;27;70937;-42
2022/02/23 01:45:06;;;;;;;;;;;;;;;29.04;64.33;101307.75;4982270;28;65707;-42
2022/02/23 01:47:36;;;;;;;;;;;;;;;29.06;64.18;101302.97;4978721;28;70299;-39
2022/02/23 01:50:13;;;;;;;;;;;;;;;29.08;64.60;101298.19;4978571;28;66618;-40
2022/02/23 01:52:43;;;;;;;;;;;;;;;29.11;64.00;101306.78;4989713;28;70682;-42
2022/02/23 01:55:13;;;;;;;;;;;;;;;29.13;63.97;101301.16;4977298;28;65625;-41
2022/02/23 01:57:43;;;;;;;;;;;;;;;29.16;64.01;101306.16;4977808;28;70199;-40
2022/02/23 02:00:14;;;;;;;;;;;;;;;29.18;63.57;101304.91;4978629;28;66459;-42
2022/02/23 02:02:45;;;;;;;;;;;;;;;29.22;63.00;101309.94;4988209;27;69478;-40
2022/02/23 02:05:16;;;;;;;;;;;;;;;29.24;63.18;101314.09;4981048;28;67007;-40
2022/02/23 02:07:45;;;;;;;;;;;;;;;29.25;63.53;101321.16;4960227;28;69982;-41
2022/02/23 02:10:15;;;;;;;;;;;;;;;29.29;63.37;101321.63;4976219;28;66177;-40
2022/02/23 02:12:45;;;;;;;;;;;;;;;29.29;63.24;101330.56;4977792;28;70560;-41
2022/02/23 02:15:15;;;;;;;;;;;;;;;29.32;62.73;101338.25;4978045;28;67059;-40
2022/02/23 02:17:44;;;;;;;;;;;;;;;29.35;63.14;101342.44;4977321;28;70222;-41
2022/02/23 02:20:15;;;;;;;;;;;;;;;29.36;62.93;101339.53;4978083;28;64726;-40
2022/02/23 02:22:45;;;;;;;;;;;;;;;29.39;62.48;101338.28;4977653;28;69670;-40
2022/02/23 02:25:16;;;;;;;;;;;;;;;29.42;62.47;101337.06;4975630;28;65411;-40
2022/02/23 02:27:46;;;;;;;;;;;;;;;29.43;62.45;101328.75;4986475;28;70565;-40
2022/02/23 02:30:17;;;;;;;;;;;;;;;29.46;62.42;101322.13;4969477;28;65870;-40
2022/02/23 02:32:47;;;;;;;;;;;;;;;29.48;62.26;101314.66;4976468;28;69458;-41
2022/02/23 02:35:19;;;;;;;;;;;;;;;29.50;61.71;101317.97;4961355;28;66380;-41
2022/02/23 02:37:49;;;;;;;;;;;;;;;29.52;62.08;101307.81;4992108;28;69778;-41
2022/02/23 02:40:22;;;;;;;;;;;;;;;29.55;61.88;101307.41;4985991;28;66696;-40
2022/02/23 02:42:51;;;;;;;;;;;;;;;29.56;61.54;101312.63;4978145;28;70322;-40
2022/02/23 02:45:23;;;;;;;;;;;;;;;29.59;61.71;101317.63;4963025;28;66956;-41
2022/02/23 02:47:53;;;;;;;;;;;;;;;29.62;61.65;101316.38;4972256;28;69732;-41
2022/02/23 02:50:23;;;;;;;;;;;;;;;29.64;61.27;101325.13;4974971;28;66426;-41
2022/02/23 02:52:53;;;;;;;;;;;;;;;29.66;61.14;101316.84;4980022;28;70453;-42
2022/02/23 02:55:25;;;;;;;;;;;;;;;29.68;61.31;101315.59;4982902;27;67156;-40
2022/02/23 02:57:55;;;;;;;;;;;;;;;29.70;61.48;101308.13;4982400;27;70356;-41
2022/02/23 03:00:26;;;;;;;;;;;;;;;29.72;60.70;101311.44;4979292;27;65457;-41
2022/02/23 03:02:56;;;;;;;;;;;;;;;29.74;60.92;101306.69;4977859;28;70005;-40
2022/02/23 03:05:29;;;;;;;;;;;;;;;29.77;60.68;101303.56;4960220;28;65891;-41
2022/02/23 03:07:59;;;;;;;;;;;;;;;29.79;60.91;101306.91;4971126;28;70729;-41
2022/02/23 03:10:29;;;;;;;;;;;;;;;29.82;60.45;101297.56;4957747;28;66642;-41
2022/02/23 03:12:58;;;;;;;;;;;;;;;29.84;60.49;101290.09;4965697;28;70688;-40
2022/02/23 03:15:30;;;;;;;;;;;;;;;29.88;60.43;101293.22;4965213;28;66464;-41
2022/02/23 03:17:59;;;;;;;;;;;;;;;29.78;59.99;101270.09;4985043;28;70197;-41
2022/02/23 03:20:34;;;;;;;;;;;;;;;29.93;60.33;101296.13;4973000;28;65469;-41
2022/02/23 03:23:05;;;;;;;;;;;;;;;29.96;59.88;101295.72;4955343;28;70309;-41
2022/02/23 03:25:34;;;;;;;;;;;;;;;29.97;59.92;101297.38;4970180;28;65510;-41
2022/02/23 03:28:04;;;;;;;;;;;;;;;29.99;59.59;101289.91;4977269;28;70797;-40
2022/02/23 03:30:34;;;;;;;;;;;;;;;30.01;59.69;101282.44;4961573;28;66341;-41
2022/02/23 03:33:05;;;;;;;;;;;;;;;30.04;59.93;101277.44;4963838;28;70884;-41
2022/02/23 03:35:39;;;;;;;;;;;;;;;30.06;59.84;101274.50;4976095;28;66170;-41
2022/02/23 03:38:09;;;;;;;;;;;;;;;30.09;59.40;101279.53;4978731;28;70618;-40
2022/02/23 03:40:40;;;;;;;;;;;;;;;30.11;59.35;101277.44;4988003;28;67216;-40
2022/02/23 03:43:10;;;;;;;;;;;;;;;30.13;59.24;101269.94;4976655;28;70223;-41
2022/02/23 03:45:40;;;;;;;;;;;;;;;30.15;59.21;101267.06;4959622;28;66824;-40
2022/02/23 03:48:11;;;;;;;;;;;;;;;30.16;59.05;101253.28;4973769;28;69633;-40
2022/02/23 03:50:41;;;;;;;;;;;;;;;30.18;59.13;101248.53;4976324;28;65248;-40
2022/02/23 03:53:11;;;;;;;;;;;;;;;30.20;59.17;101248.31;4975996;28;70326;-41
2022/02/23 03:55:42;;;;;;;;;;;;;;;30.21;59.49;101252.69;4960143;28;66619;-41
2022/02/23 03:58:13;;;;;;;;;;;;;;;30.21;59.57;101242.69;4974840;28;70553;-41
2022/02/23 04:00:44;;;;;;;;;;;;;;;30.23;59.14;101235.25;4985194;28;65322;-41
2022/02/23 04:03:15;;;;;;;;;;;;;;;30.23;59.42;101234.41;4960760;28;71094;-41
2022/02/23 04:05:45;;;;;;;;;;;;;;;30.24;59.13;101233.38;4976697;28;67118;-41
2022/02/23 04:08:15;;;;;;;;;;;;;;;30.25;59.00;101219.59;4977362;28;69167;-41
2022/02/23 04:10:48;;;;;;;;;;;;;;;30.26;58.86;101218.59;4962388;28;65200;-41
2022/02/23 04:13:19;;;;;;;;;;;;;;;30.28;59.24;101213.81;4939891;28;70066;-40
2022/02/23 04:15:49;;;;;;;;;;;;;;;30.31;58.90;101209.00;4968350;28;64727;-41
2022/02/23 04:18:19;;;;;;;;;;;;;;;30.31;58.83;101207.13;4972907;28;69481;-40
2022/02/23 04:20:49;;;;;;;;;;;;;;;30.34;58.69;101195.03;4979637;28;66217;-40
2022/02/23 04:23:19;;;;;;;;;;;;;;;30.35;58.71;101189.44;4979698;28;70363;-41
2022/02/23 04:25:49;;;;;;;;;;;;;;;30.36;58.68;101182.13;4980025;28;66349;-40
2022/02/23 04:28:18;;;;;;;;;;;;;;;30.37;59.23;101175.69;4978184;28;70080;-40
2022/02/23 04:30:49;;;;;;;;;;;;;;;30.39;59.03;101176.31;4978595;28;66473;-40
2022/02/23 04:33:19;;;;;;;;;;;;;;;30.40;59.01;101170.69;4979097;28;70340;-40
2022/02/23 04:35:51;;;;;;;;;;;;;;;30.41;58.76;101172.34;4978707;28;66682;-40
2022/02/23 04:38:20;;;;;;;;;;;;;;;30.43;59.06;101167.56;4979308;28;70260;-40
2022/02/23 04:40:52;;;;;;;;;;;;;;;30.45;58.63;101153.81;4981865;27;65724;-40
2022/02/23 04:43:32;;;;;;;;;;;;;;;30.47;58.96;101146.31;4985783;27;70645;-40
2022/02/23 04:46:10;;;;;;;;;;;;;;;30.50;58.36;101140.47;4999691;27;66631;-40
2022/02/23 04:48:41;;;;;;;;;;;;;;;30.53;58.94;101134.63;4997323;27;70480;-40
2022/02/23 04:51:11;;;;;;;;;;;;;;;30.56;58.29;101130.66;4985505;28;65723;-40
2022/02/23 04:53:41;;;;;;;;;;;;;;;30.58;58.73;101118.59;4991020;27;70660;-40
2022/02/23 04:56:11;;;;;;;;;;;;;;;30.61;58.03;101117.34;4993435;28;66162;-41
2022/02/23 04:58:40;;;;;;;;;;;;;;;30.64;58.14;101119.63;4998779;28;71006;-40
2022/02/23 05:01:11;;;;;;;;;;;;;;;30.66;58.56;101112.94;4998685;27;66398;-41
2022/02/23 05:03:41;;;;;;;;;;;;;;;30.69;58.13;101112.50;4968850;27;70067;-41
2022/02/23 05:06:11;;;;;;;;;;;;;;;30.71;58.35;101104.19;4997434;27;66488;-40
2022/02/23 05:08:41;;;;;;;;;;;;;;;30.72;58.41;101100.41;4981617;28;69116;-40
2022/02/23 05:11:11;;;;;;;;;;;;;;;30.75;58.45;101110.00;4979911;28;66277;-40
2022/02/23 05:13:40;;;;;;;;;;;;;;;30.76;57.83;101100.81;4997365;27;70109;-40
2022/02/23 05:16:10;;;;;;;;;;;;;;;30.77;58.04;101092.50;4998476;28;65913;-40
2022/02/23 05:18:40;;;;;;;;;;;;;;;30.78;58.16;101088.72;4996693;27;69791;-40
2022/02/23 05:21:10;;;;;;;;;;;;;;;30.80;58.22;101083.97;4987878;27;66562;-40
2022/02/23 05:23:39;;;;;;;;;;;;;;;30.83;57.94;101082.72;4976233;28;70440;-40
2022/02/23 05:26:11;;;;;;;;;;;;;;;30.84;57.87;101077.09;4976347;28;66816;-41
2022/02/23 05:28:41;;;;;;;;;;;;;;;30.85;57.96;101072.50;4977763;28;69695;-40
2022/02/23 05:31:10;;;;;;;;;;;;;;;30.87;57.66;101067.69;4970422;27;65969;-40
2022/02/23 05:33:40;;;;;;;;;;;;;;;30.89;57.75;101057.47;4981167;27;70596;-41
2022/02/23 05:36:10;;;;;;;;;;;;;;;30.90;57.90;101061.84;4980151;27;66495;-40
2022/02/23 05:38:40;;;;;;;;;;;;;;;30.92;57.89;101057.03;4968246;28;70450;-40
2022/02/23 05:41:09;;;;;;;;;;;;;;;30.95;57.49;101048.47;4956168;28;65932;-40
2022/02/23 05:43:39;;;;;;;;;;;;;;;30.97;57.54;101049.09;4966414;28;70636;-40
2022/02/23 05:46:10;;;;;;;;;;;;;;;30.99;58.01;101047.00;4978088;28;65706;-40
2022/02/23 05:48:40;;;;;;;;;;;;;;;31.00;57.83;101037.81;4968365;28;70140;-40
2022/02/23 05:51:31;;;;;;;;;;;;;;;31.01;58.10;101028.66;4979355;28;66294;-40
2022/02/23 05:54:02;;;;;;;;;;;;;;;31.05;57.79;101024.44;4977119;28;70193;-40
2022/02/23 05:56:32;;;;;;;;;;;;;;;31.06;57.78;101023.38;4977295;28;66997;-40
2022/02/23 05:59:02;;;;;;;;;;;;;;;31.09;57.35;101022.97;4986011;28;69158;-41
2022/02/23 06:01:33;;;;;;;;;;;;;;;31.10;57.78;101021.91;4981084;27;66677;-40
2022/02/23 06:04:04;;;;;;;;;;;;;;;31.12;57.36;101014.41;4975595;28;70466;-41
2022/02/23 06:06:33;;;;;;;;;;;;;;;31.13;57.09;101005.22;4971660;28;66307;-41
2022/02/23 06:09:03;;;;;;;;;;;;;;;31.16;57.09;101007.50;4978575;28;70813;-41
2022/02/23 06:11:33;;;;;;;;;;;;;;;31.20;57.40;101002.44;4991029;28;66994;-41
2022/02/23 06:14:05;;;;;;;;;;;;;;;31.21;57.25;101006.03;4978615;28;70322;-41
2022/02/23 06:16:34;;;;;;;;;;;;;;;31.24;57.00;100989.31;4975006;28;66680;-40
2022/02/23 06:19:05;;;;;;;;;;;;;;;31.13;57.06;100972.72;4963066;28;69824;-41
2022/02/23 06:21:35;;;;;;;;;;;;;;;31.28;56.96;100990.53;4976817;28;66593;-41
2022/02/23 06:24:05;;;;;;;;;;;;;;;31.30;57.16;100986.53;4963802;28;70217;-39
2022/02/23 06:26:35;;;;;;;;;;;;;;;31.31;57.06;100979.22;4978006;28;66989;-40
2022/02/23 06:29:04;;;;;;;;;;;;;;;31.33;57.44;100977.16;4977394;28;69207;-40
2022/02/23 06:31:35;;;;;;;;;;;;;;;31.34;57.40;100973.38;4971564;27;66444;-40
2022/02/23 06:34:04;;;;;;;;;;;;;;;31.35;57.36;100965.03;4994839;27;70395;-40
2022/02/23 06:36:34;;;;;;;;;;;;;;;31.36;57.20;100960.47;4996883;27;66563;-41
2022/02/23 06:39:04;;;;;;;;;;;;;;;31.35;56.92;100962.31;4981179;28;70127;-41
2022/02/23 06:41:35;;;;;;;;;;;;;;;31.36;57.31;100953.16;4980562;28;66068;-40
2022/02/23 06:44:05;;;;;;;;;;;;;;;31.38;56.92;100947.53;4996118;27;69117;-41
2022/02/23 06:46:35;;;;;;;;;;;;;;;31.41;56.78;100952.50;4993344;28;66630;-40
2022/02/23 06:49:05;;;;;;;;;;;;;;;31.42;57.14;100939.78;4995892;27;70215;-41
2022/02/23 06:51:35;;;;;;;;;;;;;;;31.31;57.20;100914.19;4994472;27;67076;-40
2022/02/23 06:54:05;;;;;;;;;;;;;;;31.46;56.78;100930.97;4996043;27;70766;-40
2022/02/23 06:56:35;;;;;;;;;;;;;;;31.47;56.66;100919.06;4992059;27;65283;-40
2022/02/23 06:59:05;;;;;;;;;;;;;;;31.50;57.17;100920.50;4994906;27;69293;-40
2022/02/23 07:01:36;;;;;;;;;;;;;;;31.50;56.87;100907.78;4983657;28;66413;-41
2022/02/23 07:04:06;;;;;;;;;;;;;;;31.51;56.85;100906.75;4996732;28;69636;-41
2022/02/23 07:06:36;;;;;;;;;;;;;;;31.50;56.84;100902.34;4993883;27;66523;-41
2022/02/23 07:09:05;;;;;;;;;;;;;;;31.51;57.09;100895.91;4976001;28;70355;-41
2022/02/23 07:11:36;;;;;;;;;;;;;;;31.52;56.78;100897.53;4979679;28;66057;-41
2022/02/23 07:14:06;;;;;;;;;;;;;;;31.53;56.89;100892.94;4971540;28;70054;-40
2022/02/23 07:16:37;;;;;;;;;;;;;;;31.52;57.38;100897.53;4971469;28;67134;-40
2022/02/23 07:19:06;;;;;;;;;;;;;;;31.53;56.78;100896.47;4995688;28;69407;-40
2022/02/23 07:21:38;;;;;;;;;;;;;;;31.53;56.89;100899.19;4984409;28;66476;-40
2022/02/23 07:24:08;;;;;;;;;;;;;;;31.53;56.80;100896.47;4976342;28;70018;-40
2022/02/23 07:26:37;;;;;;;;;;;;;;;31.54;56.83;100881.06;4966106;28;66096;-40
2022/02/23 07:29:07;;;;;;;;;;;;;;;31.54;56.78;100881.06;4976421;28;70198;-40
2022/02/23 07:31:40;;;;;;;;;;;;;;;31.53;57.22;100885.63;4960456;28;66506;-40
2022/02/23 07:34:11;;;;;;;;;;;;;;;31.55;56.99;100883.53;4977829;28;70663;-41
2022/02/23 07:36:41;;;;;;;;;;;;;;;31.56;56.99;100885.19;4975830;28;67204;-40
2022/02/23 07:39:11;;;;;;;;;;;;;;;31.56;57.46;100890.59;4978881;27;70403;-40
2022/02/23 07:41:41;;;;;;;;;;;;;;;31.57;57.24;100884.16;4974063;28;65797;-41
2022/02/23 07:44:31;;;;;;;;;;;;;;;31.59;57.39;100882.06;4975187;28;69887;-41
2022/02/23 07:47:02;;;;;;;;;;;;;;;31.63;57.14;100884.31;4987605;28;66916;-39
2022/02/23 07:49:32;;;;;;;;;;;;;;;31.67;57.32;100880.06;4974926;28;69112;-40
2022/02/23 07:52:02;;;;;;;;;;;;;;;31.68;57.21;100876.31;4969508;28;66639;-41
2022/02/23 07:54:32;;;;;;;;;;;;;;;31.70;57.22;100868.78;4978447;28;70016;-41
2022/02/23 07:57:02;;;;;;;;;;;;;;;31.72;56.74;100872.09;4979214;28;65849;-41
2022/02/23 07:59:32;;;;;;;;;;;;;;;31.73;56.69;100869.19;5051602;28;70178;-41
2022/02/23 08:02:03;;;;;;;;;;;;;;;31.74;56.94;100862.69;4980493;28;67480;-41
2022/02/23 08:04:34;;;;;;;;;;;;;;;31.76;56.89;100857.88;4978482;28;69076;-41
2022/02/23 08:07:04;;;;;;;;;;;;;;;31.77;56.98;100847.84;4967232;28;66755;-39
2022/02/23 08:09:34;;;;;;;;;;;;;;;31.77;56.65;100850.56;4991084;28;69257;-41
2022/02/23 08:12:05;;;;;;;;;;;;;;;31.78;56.58;100860.34;4965654;27;65506;-41
2022/02/23 08:14:35;;;;;;;;;;;;;;;31.76;56.90;100857.88;4979393;28;70252;-41
2022/02/23 08:19:52;;;;;;;;;;;;;;;31.79;56.78;100851.97;4972749;28;69915;-39
2022/02/23 08:22:28;;;;;;;;;;;;;;;31.80;57.19;100847.38;4992856;28;66918;-40
2022/02/23 08:24:58;;;;;;;;;;;;;;;31.81;57.07;100849.03;4969017;28;70427;-41
2022/02/23 08:27:30;;;;;;;;;;;;;;;31.83;56.76;100850.47;4989366;27;65511;-39
2022/02/23 08:30:00;;;;;;;;;;;;;;;31.87;56.75;100853.53;4979580;28;69707;-40
2022/02/23 08:32:30;;;;;;;;;;;;;;;31.90;56.66;100847.69;4979403;28;66516;-39
2022/02/23 08:35:00;;;;;;;;;;;;;;;31.93;56.87;100857.25;4970816;28;70395;-40
2022/02/23 08:37:30;;;;;;;;;;;;;;;31.95;56.59;100857.88;4965901;28;66554;-41
2022/02/23 08:40:03;;;;;;;;;;;;;;;31.97;56.49;100837.59;4967884;28;69933;-40
2022/02/23 08:42:33;;;;;;;;;;;;;;;32.01;56.68;100837.94;4975957;28;67178;-40
2022/02/23 08:45:02;;;;;;;;;;;;;;;32.05;56.64;100848.13;4979308;28;70316;-40
2022/02/23 08:47:32;;;;;;;;;;;;;;;32.09;56.68;100842.25;4979406;28;66683;-41
2022/02/23 08:50:02;;;;;;;;;;;;;;;32.11;56.48;100843.66;4998039;28;69124;-41
2022/02/23 08:52:32;;;;;;;;;;;;;;;32.13;56.67;100846.16;4983105;28;65984;-39
2022/02/23 08:55:03;;;;;;;;;;;;;;;32.16;56.40;100829.41;4946912;28;69379;-40
2022/02/23 08:57:33;;;;;;;;;;;;;;;32.17;56.29;100833.78;4943223;28;65524;-41
2022/02/23 09:00:04;;;;;;;;;;;;;;;32.17;56.49;100831.06;4975816;28;69051;-41
2022/02/23 09:02:34;;;;;;;;;;;;;;;32.18;56.39;100830.00;4976991;28;65755;-41
2022/02/23 09:05:04;;;;;;;;;;;;;;;32.18;56.18;100833.56;4960750;28;69760;-41
2022/02/23 09:07:34;;;;;;;;;;;;;;;32.20;56.31;100846.88;4976947;28;66061;-41
2022/02/23 09:10:08;;;;;;;;;;;;;;;32.19;56.31;100847.94;4976453;28;69834;-41
2022/02/23 09:12:38;;;;;;;;;;;;;;;32.21;56.31;100856.69;4978121;28;66247;-40
2022/02/23 09:15:11;;;;;;;;;;;;;;;32.19;56.43;100861.53;4977014;28;69746;-40
2022/02/23 09:17:44;;;;;;;;;;;;;;;32.21;56.40;100875.69;4977388;28;66726;-40
2022/02/23 09:20:14;;;;;;;;;;;;;;;32.21;55.98;100872.97;4979752;28;69785;-40
2022/02/23 09:22:43;;;;;;;;;;;;;;;32.22;56.11;100867.31;4976683;28;65352;-40
2022/02/23 09:25:13;;;;;;;;;;;;;;;32.22;56.23;100872.75;4979090;28;70198;-40
2022/02/23 09:27:43;;;;;;;;;;;;;;;32.22;56.45;100869.19;4972873;28;65280;-41
2022/02/23 09:30:14;;;;;;;;;;;;;;;32.24;56.62;100869.81;4968496;28;70398;-40
2022/02/23 09:32:49;;;;;;;;;;;;;;;32.24;56.32;100869.81;4978349;28;66249;-40
2022/02/23 09:35:19;;;;;;;;;;;;;;;32.24;56.84;100875.25;4968099;28;69753;-41
2022/02/23 09:37:49;;;;;;;;;;;;;;;32.23;56.65;100885.28;4974605;28;66069;-40
2022/02/23 09:40:19;;;;;;;;;;;;;;;32.22;56.84;100885.50;4969640;28;68447;-40
2022/02/23 09:42:50;;;;;;;;;;;;;;;32.23;56.89;100884.41;4971939;28;66169;-40
2022/02/23 09:45:20;;;;;;;;;;;;;;;32.22;56.67;100885.50;4978241;28;69805;-41
2022/02/23 09:47:50;;;;;;;;;;;;;;;32.22;56.67;100886.31;4979680;28;67068;-40
2022/02/23 09:50:20;;;;;;;;;;;;;;;32.22;57.05;100896.34;4977876;28;69775;-40
2022/02/23 09:52:51;;;;;;;;;;;;;;;32.22;56.88;100893.63;4978586;28;65972;-40
2022/02/23 09:55:24;;;;;;;;;;;;;;;32.22;57.05;100899.06;4978089;28;69816;-40
2022/02/23 09:57:54;;;;;;;;;;;;;;;32.20;57.18;100912.84;4961450;28;66864;-40
2022/02/23 10:00:23;;;;;;;;;;;;;;;32.20;57.56;100917.44;4972296;28;69351;-41
2022/02/23 10:02:55;;;;;;;;;;;;;;;32.20;57.26;100928.31;4974238;28;67975;-40
2022/02/23 10:05:25;;;;;;;;;;;;;;;32.19;57.39;100938.34;4971171;28;70549;-40
2022/02/23 10:08:09;;;;;;;;;;;;;;;32.19;57.54;100942.94;4979298;28;65927;-39
2022/02/23 10:10:59;;;;;;;;;;;;;;;32.18;57.41;100938.56;4969177;28;69888;-41
2022/02/23 10:13:29;;;;;;;;;;;;;;;32.17;57.27;100934.19;4992672;27;65600;-40
2022/02/23 10:15:59;;;;;;;;;;;;;;;32.15;57.78;100934.44;5034455;27;69927;-40
2022/02/23 10:18:49;;;;;;;;;;;;;;;32.14;57.23;100938.19;4985982;28;66440;-41
2022/02/23 10:21:19;;;;;;;;;;;;;;;32.14;57.66;100961.78;4971027;28;69204;-42
2022/02/23 10:23:49;;;;;;;;;;;;;;;32.14;57.94;100980.78;4957825;28;66554;-41
2022/02/23 10:26:29;;;;;;;;;;;;;;;32.14;57.84;100983.50;4967961;28;68757;-41
2022/02/23 10:29:00;;;;;;;;;;;;;;;32.14;58.58;100997.06;4971490;28;65448;-41
2022/02/23 10:31:30;;;;;;;;;;;;;;;32.14;58.68;101005.22;4973985;28;69296;-41
2022/02/23 10:34:17;;;;;;;;;;;;;;;32.12;58.92;101013.56;4967948;27;66064;-42
2022/02/23 10:37:07;;;;;;;;;;;;;;;32.10;59.16;101015.69;4977050;28;70027;-41
2022/02/23 10:39:45;;;;;;;;;;;;;;;32.09;60.03;101015.91;4974876;28;66186;-42
2022/02/23 10:42:16;;;;;;;;;;;;;;;32.09;60.53;101013.19;4973450;28;69222;-43
2022/02/23 10:44:53;;;;;;;;;;;;;;;32.09;61.27;101018.63;4976931;28;66485;-41
2022/02/23 10:47:36;;;;;;;;;;;;;;;32.10;60.94;101026.56;4977003;28;69990;-41
2022/02/23 10:50:07;;;;;;;;;;;;;;;32.10;61.71;101031.16;4976128;28;66976;-40
2022/02/23 10:52:41;;;;;;;;;;;;;;;32.11;62.01;101035.50;4976930;28;69588;-41
2022/02/23 10:55:22;;;;;;;;;;;;;;;32.08;63.30;101049.53;4980475;27;65143;-41
2022/02/23 10:57:54;;;;;;;;;;;;;;;32.00;63.87;101056.91;4976750;28;69530;-41
2022/02/23 11:00:28;;;;;;;;;;;;;;;31.94;64.21;101068.66;4975361;28;65547;-42
2022/02/23 11:02:58;;;;;;;;;;;;;;;31.90;64.97;101070.13;4975013;28;69834;-43
2022/02/23 11:05:30;;;;;;;;;;;;;;;31.90;64.86;101077.41;4959144;28;65993;-41
2022/02/23 11:08:04;;;;;;;;;;;;;;;31.92;64.07;101084.31;4975610;28;69887;-41
2022/02/23 11:10:34;;;;;;;;;;;;;;;31.92;63.33;101073.47;4976151;28;65834;-42
2022/02/23 11:13:04;;;;;;;;;;;;;;;31.93;63.23;101058.88;4977143;28;69902;-41
2022/02/23 11:15:35;;;;;;;;;;;;;;;31.93;63.13;101049.88;4972356;28;65595;-41
2022/02/23 11:18:05;;;;;;;;;;;;;;;31.92;63.16;101040.91;4964196;28;69903;-43
2022/02/23 11:20:36;;;;;;;;;;;;;;;31.91;63.00;101039.25;4978822;27;66400;-41
2022/02/23 11:23:06;;;;;;;;;;;;;;;31.91;63.10;101036.53;4975419;28;71153;-41
2022/02/23 11:25:37;;;;;;;;;;;;;;;31.92;62.84;101045.50;4973143;28;66150;-41
2022/02/23 11:28:12;;;;;;;;;;;;;;;31.89;63.23;101057.59;4978228;28;71732;-41
2022/02/23 11:30:42;;;;;;;;;;;;;;;31.89;63.18;101073.88;4976557;28;65642;-42
2022/02/23 11:33:12;;;;;;;;;;;;;;;31.88;63.17;101076.84;4967580;28;69944;-42
2022/02/23 11:35:55;;;;;;;;;;;;;;;31.87;62.79;101084.13;4974800;28;65693;-42
2022/02/23 11:38:26;;;;;;;;;;;;;;;31.88;62.59;101082.25;4987751;27;70685;-42
2022/02/23 11:40:57;;;;;;;;;;;;;;;31.86;62.93;101085.19;4976347;28;65702;-42
2022/02/23 11:43:34;;;;;;;;;;;;;;;31.84;63.21;101100.84;4979472;27;70940;-41
2022/02/23 11:46:07;;;;;;;;;;;;;;;31.81;63.09;101096.69;4987837;28;65552;-41
2022/02/23 11:48:49;;;;;;;;;;;;;;;31.81;62.54;101099.41;4972599;28;70504;-44
2022/02/23 11:51:37;;;;;;;;;;;;;;;31.79;62.65;101106.13;4975256;28;66201;-40
2022/02/23 11:54:07;;;;;;;;;;;;;;;31.78;63.14;101107.16;4977648;28;69146;-42
2022/02/23 11:56:41;;;;;;;;;;;;;;;31.77;62.66;101110.94;4973834;28;66826;-42
2022/02/23 11:59:46;;;;;;;;;;;;;;;31.76;62.58;101118.25;4976594;28;69852;-42
2022/02/23 12:02:16;;;;;;;;;;;;;;;31.75;63.07;101107.59;4959585;28;66019;-42
2022/02/23 12:04:54;;;;;;;;;;;;;;;31.73;63.36;101112.41;4974692;28;70425;-41
2022/02/23 12:07:24;;;;;;;;;;;;;;;31.71;63.31;101106.41;4974512;28;66539;-42
2022/02/23 12:09:55;;;;;;;;;;;;;;;31.70;63.00;101102.00;4976362;28;70229;-41
2022/02/23 12:12:46;;;;;;;;;;;;;;;31.68;62.68;101104.09;4977655;28;65898;-41
2022/02/23 12:15:34;;;;;;;;;;;;;;;31.66;63.45;101112.47;4986560;28;70213;-42
2022/02/23 12:18:03;;;;;;;;;;;;;;;31.65;62.87;101115.38;4956417;28;64905;-42
2022/02/23 12:20:38;;;;;;;;;;;;;;;31.63;63.17;101109.38;4980425;27;69255;-41
2022/02/23 12:23:19;;;;;;;;;;;;;;;31.63;63.29;101117.50;4976352;28;67157;-42
2022/02/23 12:26:04;;;;;;;;;;;;;;;31.61;63.24;101117.72;4974955;28;68905;-42
2022/02/23 12:28:35;;;;;;;;;;;;;;;31.58;63.43;101121.69;4977301;28;66647;-41
2022/02/23 12:31:07;;;;;;;;;;;;;;;31.50;63.34;101107.56;4991258;28;70248;-42
2022/02/23 12:33:38;;;;;;;;;;;;;;;31.57;63.09;101125.47;4966128;28;66230;-41
2022/02/23 12:36:42;;;;;;;;;;;;;;;31.56;63.28;101131.09;4974690;28;70109;-41
2022/02/23 12:39:14;;;;;;;;;;;;;;;31.54;63.16;101136.75;4980050;28;66779;-42
2022/02/23 12:41:49;;;;;;;;;;;;;;;31.55;63.42;101153.84;4978153;28;69992;-42
2022/02/23 12:44:24;;;;;;;;;;;;;;;31.52;63.29;101159.72;4962262;28;66323;-42
2022/02/23 12:46:55;;;;;;;;;;;;;;;31.51;63.95;101158.88;4965107;28;70443;-42
2022/02/23 12:49:30;;;;;;;;;;;;;;;31.50;63.49;101168.06;4979842;28;66246;-42
2022/02/23 12:52:03;;;;;;;;;;;;;;;31.50;63.70;101170.75;4971688;28;69825;-41
2022/02/23 12:54:33;;;;;;;;;;;;;;;31.48;63.48;101170.16;4971558;28;65434;-42
2022/02/23 12:57:06;;;;;;;;;;;;;;;31.47;63.37;101167.66;4966257;28;70219;-42
2022/02/23 12:59:37;;;;;;;;;;;;;;;31.46;63.95;101177.69;4967019;28;66654;-46
2022/02/23 13:02:11;;;;;;;;;;;;;;;31.46;64.10;101174.97;4977828;28;70065;-41